Terminal Aerodrome Forecast
Issued by NWS

Home | Current Version | Previous Version | Text Only | Print | Product List | Glossary On
Versions: 1 2 3 4 5 6 7 8 9 10 11 12 13
442
FTUS43 KIND 252338
TAFLAF
TAF
KLAF 252338Z 2600/2624 21010KT P6SM SCT040 BKN100
     FM260600 20006KT P6SM BKN080
     FM260900 22003KT 3SM BR SCT080
     FM261400 21008KT P6SM SCT040 SCT080
     FM261900 21008KT P6SM SCT025 BKN040
      AMD LTD TO CLD VIS AND WIND 2601/2613=

USA.gov is the U.S. government's official web portal to all federal, state and local government web resources and services.